Time;durP1;ratioP1;P1;durP2;ratioP2;P2;SDS_P1;SDS_P2;PMS_P1;PMS_P2;Temp;Humidity;BMP_temperature;BMP_pressure;BME280_temperature;BME280_humidity;BME280_pressure;Samples;Min_cycle;Max_cycle;Signal;HPM_P1;HPM_P2
2021/11/29 00:01:05;;;;;;;80.82;19.92;;;4.00;99.90;;;;;;4987873;28;20127;-80
2021/11/29 00:03:34;;;;;;;60.17;17.95;;;4.20;99.90;;;;;;4999094;28;20057;-79
2021/11/29 00:06:02;;;;;;;74.88;19.98;;;4.00;99.90;;;;;;5003784;28;20172;-80
2021/11/29 00:08:30;;;;;;;76.07;19.08;;;4.00;99.90;;;;;;5019583;28;20045;-80
2021/11/29 00:10:57;;;;;;;67.07;19.25;;;4.20;99.90;;;;;;5007019;28;20070;-79
2021/11/29 00:13:24;;;;;;;66.28;17.88;;;4.00;99.90;;;;;;4987577;28;20081;-79
2021/11/29 00:15:50;;;;;;;73.35;18.75;;;4.10;99.90;;;;;;4994333;28;20131;-79
2021/11/29 00:18:17;;;;;;;68.95;18.17;;;4.00;99.90;;;;;;5004268;28;20117;-79
2021/11/29 00:20:45;;;;;;;65.97;19.15;;;4.00;99.90;;;;;;4994946;28;20084;-80
2021/11/29 00:23:13;;;;;;;59.38;18.77;;;4.00;99.90;;;;;;4995291;28;20081;-79
2021/11/29 00:25:42;;;;;;;74.28;18.95;;;3.90;99.90;;;;;;5023108;28;20072;-79
2021/11/29 00:28:09;;;;;;;71.70;19.33;;;3.90;99.90;;;;;;4977026;28;20081;-79
2021/11/29 00:30:37;;;;;;;72.00;19.75;;;3.90;99.90;;;;;;5012744;28;20100;-79
2021/11/29 00:33:05;;;;;;;74.13;19.77;;;3.90;99.90;;;;;;4995230;28;20489;-79
2021/11/29 00:35:32;;;;;;;71.50;19.40;;;3.90;99.90;;;;;;4986133;28;20081;-79
2021/11/29 00:37:59;;;;;;;66.63;19.70;;;3.90;99.90;;;;;;5011370;28;20065;-79
2021/11/29 00:40:27;;;;;;;77.47;20.55;;;3.90;99.90;;;;;;4993786;28;20053;-79
2021/11/29 00:42:54;;;;;;;78.30;19.90;;;3.80;99.90;;;;;;4993863;28;20061;-79
2021/11/29 00:45:21;;;;;;;72.60;20.20;;;3.80;99.90;;;;;;5001625;28;20137;-79
2021/11/29 00:47:48;;;;;;;72.40;19.67;;;3.90;99.90;;;;;;5006740;28;20722;-80
2021/11/29 00:50:19;;;;;;;79.03;20.08;;;3.80;99.90;;;;;;4989443;28;20133;-79
2021/11/29 00:52:46;;;;;;;79.82;20.02;;;3.80;99.90;;;;;;4992885;28;20080;-79
2021/11/29 00:55:15;;;;;;;78.13;21.35;;;3.80;99.90;;;;;;5018253;28;20726;-79
2021/11/29 00:57:43;;;;;;;70.18;20.05;;;3.80;99.90;;;;;;4984633;28;20870;-79
2021/11/29 01:00:14;;;;;;;88.95;20.88;;;3.90;99.90;;;;;;4991823;28;20081;-79
2021/11/29 01:02:43;;;;;;;76.10;19.75;;;3.80;99.90;;;;;;5001412;28;20498;-79
2021/11/29 01:05:10;;;;;;;72.60;19.70;;;3.80;99.90;;;;;;5003991;28;20613;-79
2021/11/29 01:07:38;;;;;;;72.70;19.60;;;4.00;99.90;;;;;;4993781;28;20484;-79
2021/11/29 01:10:07;;;;;;;78.70;20.25;;;3.90;99.90;;;;;;5003326;28;20095;-79
2021/11/29 01:12:34;;;;;;;66.90;18.60;;;3.70;99.90;;;;;;5011986;28;20132;-79
2021/11/29 01:15:03;;;;;;;80.43;20.02;;;3.90;99.90;;;;;;4977850;28;20046;-79
2021/11/29 01:17:30;;;;;;;70.72;18.83;;;3.80;99.90;;;;;;4997500;28;20107;-79
2021/11/29 01:19:57;;;;;;;65.40;17.52;;;3.90;99.90;;;;;;5007638;28;20237;-80
2021/11/29 01:22:24;;;;;;;76.35;20.33;;;3.80;99.90;;;;;;5013741;28;20050;-79
2021/11/29 01:24:51;;;;;;;73.78;21.25;;;3.80;99.90;;;;;;5003903;28;20089;-80
2021/11/29 01:27:18;;;;;;;68.22;19.08;;;4.00;99.90;;;;;;5000122;28;20152;-80
2021/11/29 01:29:45;;;;;;;65.68;18.45;;;3.90;99.90;;;;;;4985817;28;20069;-79
2021/11/29 01:32:12;;;;;;;70.28;19.40;;;3.90;99.90;;;;;;4993809;28;20053;-79
2021/11/29 01:34:39;;;;;;;74.45;18.90;;;3.90;99.90;;;;;;5000339;28;20111;-79
2021/11/29 01:37:05;;;;;;;65.70;19.83;;;3.90;99.90;;;;;;4988945;28;20952;-79
2021/11/29 01:39:33;;;;;;;71.72;19.23;;;3.80;99.90;;;;;;5010520;28;20137;-79
2021/11/29 01:42:00;;;;;;;78.82;20.58;;;3.90;99.90;;;;;;5001824;28;20053;-78
2021/11/29 01:44:27;;;;;;;72.22;20.40;;;3.90;99.90;;;;;;5015383;28;20085;-79
2021/11/29 01:46:54;;;;;;;72.53;20.02;;;3.90;99.90;;;;;;5009423;28;20088;-79
2021/11/29 01:49:21;;;;;;;78.95;20.38;;;3.90;99.90;;;;;;4998322;28;20137;-79
2021/11/29 01:51:48;;;;;;;69.65;20.83;;;3.90;99.90;;;;;;5013936;28;20073;-79
2021/11/29 01:54:15;;;;;;;66.10;18.75;;;4.00;99.90;;;;;;5001059;28;20104;-79
2021/11/29 01:56:45;;;;;;;67.95;18.63;;;3.90;99.90;;;;;;5016393;28;20159;-79
2021/11/29 01:59:12;;;;;;;69.07;18.58;;;3.80;99.90;;;;;;4996716;28;20057;-79
2021/11/29 02:01:40;;;;;;;67.97;18.92;;;3.80;99.90;;;;;;5013057;28;20146;-79
2021/11/29 02:04:11;;;;;;;69.45;18.27;;;3.70;99.90;;;;;;5011080;28;20671;-79
2021/11/29 02:06:39;;;;;;;68.43;17.33;;;3.80;99.90;;;;;;5013587;28;20080;-79
2021/11/29 02:09:09;;;;;;;66.25;18.25;;;3.80;99.90;;;;;;5024502;28;20426;-79
2021/11/29 02:11:38;;;;;;;74.38;19.65;;;3.70;99.90;;;;;;4974800;28;20093;-79
2021/11/29 02:14:05;;;;;;;76.53;18.75;;;3.80;99.90;;;;;;5008254;28;20128;-79
2021/11/29 02:16:32;;;;;;;72.93;19.70;;;3.70;99.90;;;;;;4995728;28;20837;-78
2021/11/29 02:19:00;;;;;;;76.10;19.23;;;3.70;99.90;;;;;;4995003;28;20065;-79
2021/11/29 02:21:31;;;;;;;70.88;18.23;;;3.70;99.90;;;;;;4999801;28;20054;-79
2021/11/29 02:24:02;;;;;;;76.88;18.65;;;3.70;99.90;;;;;;5004174;28;20093;-78
2021/11/29 02:26:31;;;;;;;73.85;20.15;;;3.70;99.90;;;;;;4988843;28;20043;-79
2021/11/29 02:29:02;;;;;;;85.57;21.20;;;3.70;99.90;;;;;;4996765;28;20136;-79
2021/11/29 02:31:37;;;;;;;65.38;18.77;;;3.70;99.90;;;;;;4995449;28;20072;-78
2021/11/29 02:34:10;;;;;;;71.25;19.48;;;3.60;99.90;;;;;;5012032;28;20419;-79
2021/11/29 02:36:40;;;;;;;75.32;19.60;;;3.60;99.90;;;;;;5018879;28;20045;-78
2021/11/29 02:39:09;;;;;;;73.15;19.67;;;3.60;99.90;;;;;;5010491;28;20141;-79
2021/11/29 02:41:36;;;;;;;81.63;20.85;;;3.80;99.90;;;;;;5005576;28;20088;-79
2021/11/29 02:44:04;;;;;;;71.20;20.20;;;3.70;99.90;;;;;;4996691;28;20081;-79
2021/11/29 02:46:31;;;;;;;81.25;21.48;;;3.70;99.90;;;;;;4983502;28;20053;-79
2021/11/29 02:48:58;;;;;;;82.22;21.02;;;3.70;99.90;;;;;;4991778;28;20756;-79
2021/11/29 02:51:37;;;;;;;72.05;19.90;;;3.70;99.90;;;;;;5009409;28;20077;-79
2021/11/29 02:54:20;;;;;;;68.43;18.60;;;3.70;99.90;;;;;;4991491;28;20049;-78
2021/11/29 02:56:48;;;;;;;67.65;19.05;;;3.70;99.90;;;;;;4973501;28;20093;-79
2021/11/29 02:59:22;;;;;;;78.88;20.48;;;3.70;99.90;;;;;;5008402;28;20053;-79
2021/11/29 03:01:51;;;;;;;67.65;18.02;;;3.60;99.90;;;;;;4999041;28;20064;-79
2021/11/29 03:04:20;;;;;;;70.88;20.73;;;3.70;99.90;;;;;;4992160;28;20080;-79
2021/11/29 03:06:48;;;;;;;79.38;19.00;;;3.70;99.90;;;;;;5006525;28;20057;-79
2021/11/29 03:09:15;;;;;;;80.38;19.17;;;3.70;99.90;;;;;;4997181;28;20130;-78
2021/11/29 03:11:43;;;;;;;78.60;20.20;;;3.70;99.90;;;;;;4973475;28;20130;-79
2021/11/29 03:14:10;;;;;;;75.05;19.02;;;3.80;99.90;;;;;;5001763;28;20141;-78
2021/11/29 03:16:37;;;;;;;66.47;18.90;;;3.90;99.90;;;;;;4990625;28;20138;-78
2021/11/29 03:19:04;;;;;;;64.97;17.70;;;3.70;99.90;;;;;;4995459;28;20049;-78
2021/11/29 03:21:31;;;;;;;70.60;19.05;;;3.70;99.90;;;;;;5001627;28;20050;-79
2021/11/29 03:24:02;;;;;;;74.85;17.73;;;3.80;99.90;;;;;;4994325;28;20058;-79
2021/11/29 03:26:31;;;;;;;70.95;19.05;;;3.90;99.90;;;;;;5013329;28;20624;-78
2021/11/29 03:29:07;;;;;;;77.25;20.20;;;3.80;99.90;;;;;;5016965;28;20038;-78
2021/11/29 03:31:34;;;;;;;65.30;18.15;;;3.80;99.90;;;;;;4998921;28;20077;-78
2021/11/29 03:34:04;;;;;;;67.63;17.08;;;3.80;99.90;;;;;;4998228;28;20053;-79
2021/11/29 03:36:32;;;;;;;67.55;17.33;;;3.80;99.90;;;;;;5013376;28;20670;-79
2021/11/29 03:39:01;;;;;;;61.25;15.80;;;3.80;99.90;;;;;;4991152;28;20050;-78
2021/11/29 03:41:28;;;;;;;69.60;18.30;;;3.80;99.90;;;;;;4999630;28;20132;-78
2021/11/29 03:43:56;;;;;;;57.15;17.13;;;3.80;99.90;;;;;;4999413;28;20082;-78
2021/11/29 03:46:23;;;;;;;64.75;17.48;;;3.90;99.90;;;;;;5000894;28;20098;-78
2021/11/29 03:48:50;;;;;;;65.00;17.63;;;3.80;99.90;;;;;;4994019;28;20046;-78
2021/11/29 03:51:16;;;;;;;67.32;16.92;;;3.90;99.90;;;;;;5004873;28;20140;-78
2021/11/29 03:53:43;;;;;;;59.13;16.38;;;3.90;99.90;;;;;;5028038;28;20207;-79
2021/11/29 03:56:11;;;;;;;64.78;16.85;;;3.90;99.90;;;;;;4990630;28;20129;-78
2021/11/29 03:58:37;;;;;;;60.95;16.05;;;3.80;99.90;;;;;;5007217;28;20518;-78
2021/11/29 04:01:05;;;;;;;61.90;17.35;;;3.90;99.90;;;;;;4994485;28;20132;-78
2021/11/29 04:03:32;;;;;;;55.28;15.80;;;3.90;99.90;;;;;;5003439;28;20046;-78
2021/11/29 04:05:59;;;;;;;56.80;15.18;;;3.90;99.90;;;;;;5010343;28;20073;-78
2021/11/29 04:08:26;;;;;;;54.72;15.63;;;3.90;99.90;;;;;;5030999;28;20049;-79
2021/11/29 04:10:53;;;;;;;49.90;15.23;;;4.00;99.90;;;;;;4991338;28;20794;-78
2021/11/29 04:13:20;;;;;;;61.58;16.98;;;3.90;99.90;;;;;;4987667;28;20097;-79
2021/11/29 04:15:47;;;;;;;65.00;17.95;;;4.00;99.90;;;;;;4976246;28;20567;-79
2021/11/29 04:18:14;;;;;;;61.13;16.75;;;3.90;99.90;;;;;;4977100;28;20058;-79
2021/11/29 04:20:41;;;;;;;53.53;15.18;;;3.90;99.90;;;;;;5007720;28;20092;-79
2021/11/29 04:23:07;;;;;;;53.15;15.85;;;3.90;99.90;;;;;;5005498;28;20156;-79
2021/11/29 04:25:47;;;;;;;64.82;17.88;;;4.00;99.90;;;;;;5004009;28;20443;-80
2021/11/29 04:28:14;;;;;;;62.53;16.30;;;3.80;99.90;;;;;;4987921;28;20081;-79
2021/11/29 04:30:41;;;;;;;59.50;16.13;;;3.80;99.90;;;;;;4991780;28;20132;-79
2021/11/29 04:33:08;;;;;;;43.40;14.20;;;3.80;99.90;;;;;;4993674;28;20038;-79
2021/11/29 04:35:35;;;;;;;50.22;15.65;;;3.90;99.90;;;;;;4993684;28;20117;-79
2021/11/29 04:38:04;;;;;;;59.50;14.55;;;3.80;99.90;;;;;;4998617;28;20129;-79
2021/11/29 04:40:32;;;;;;;56.35;16.17;;;4.00;99.90;;;;;;5010182;28;20143;-79
2021/11/29 04:42:59;;;;;;;53.53;15.80;;;3.80;99.90;;;;;;5011479;28;20096;-79
2021/11/29 04:45:26;;;;;;;56.15;15.50;;;3.80;99.90;;;;;;5020335;28;20053;-79
2021/11/29 04:47:53;;;;;;;62.22;14.90;;;3.70;99.90;;;;;;5013534;28;20061;-79
2021/11/29 04:50:20;;;;;;;54.85;15.27;;;3.80;99.90;;;;;;5002829;28;20081;-79
2021/11/29 04:52:47;;;;;;;53.50;14.68;;;3.60;99.90;;;;;;4998642;28;20478;-79
2021/11/29 04:55:14;;;;;;;51.78;13.77;;;3.50;99.90;;;;;;4994739;28;20054;-79
2021/11/29 04:57:42;;;;;;;53.22;13.57;;;3.40;99.90;;;;;;4994439;28;20054;-79
2021/11/29 05:00:16;;;;;;;41.60;14.15;;;3.20;99.90;;;;;;4988242;28;20050;-79
2021/11/29 05:02:43;;;;;;;43.13;12.82;;;3.10;99.90;;;;;;4993251;28;20167;-79
2021/11/29 05:05:11;;;;;;;42.92;11.90;;;3.10;99.90;;;;;;4991714;28;20050;-79
2021/11/29 05:07:38;;;;;;;44.75;12.07;;;3.10;99.90;;;;;;4994353;28;20069;-90
2021/11/29 05:10:06;;;;;;;47.67;14.32;;;3.00;99.90;;;;;;4999206;28;20046;-90
2021/11/29 05:12:34;;;;;;;45.20;13.15;;;2.90;99.90;;;;;;5015377;28;20057;-90
2021/11/29 05:15:02;;;;;;;45.50;13.10;;;2.90;99.90;;;;;;4996049;28;20050;-91
2021/11/29 05:17:29;;;;;;;44.90;12.25;;;2.80;99.90;;;;;;4981130;28;20553;-90
2021/11/29 05:19:57;;;;;;;41.95;11.55;;;2.80;99.90;;;;;;4988596;28;20161;-89
2021/11/29 05:22:24;;;;;;;49.33;12.48;;;2.70;99.90;;;;;;5027079;28;20938;-90
2021/11/29 05:24:51;;;;;;;39.35;12.15;;;2.60;99.90;;;;;;4996116;28;20852;-90
2021/11/29 05:27:17;;;;;;;40.97;12.15;;;2.50;99.90;;;;;;5013401;28;20089;-89
2021/11/29 05:29:44;;;;;;;37.40;11.23;;;2.50;99.90;;;;;;4994177;28;20046;-90
2021/11/29 05:32:11;;;;;;;46.92;12.55;;;2.40;99.90;;;;;;5002235;28;20137;-90
2021/11/29 05:34:38;;;;;;;41.90;12.00;;;2.50;99.90;;;;;;4996504;28;20061;-91
2021/11/29 05:37:20;;;;;;;43.42;10.98;;;2.40;99.90;;;;;;4997569;28;20056;-90
2021/11/29 05:39:47;;;;;;;42.47;12.05;;;2.30;99.90;;;;;;5002101;28;20546;-89
2021/11/29 05:42:19;;;;;;;38.80;12.32;;;2.20;99.90;;;;;;5009978;28;20068;-90
2021/11/29 05:44:50;;;;;;;44.83;15.10;;;2.30;99.90;;;;;;5015519;28;20077;-90
2021/11/29 05:47:20;;;;;;;71.13;31.50;;;2.10;99.90;;;;;;4998918;28;20153;-90
2021/11/29 05:49:47;;;;;;;49.13;14.93;;;2.10;99.90;;;;;;4995667;28;20148;-89
2021/11/29 05:52:14;;;;;;;53.20;17.65;;;2.10;99.90;;;;;;4994251;28;20088;-90
2021/11/29 05:54:41;;;;;;;48.63;15.02;;;2.20;99.90;;;;;;5021956;28;20115;-90
2021/11/29 05:57:08;;;;;;;90.07;43.28;;;2.20;99.90;;;;;;5030077;28;20157;-90
2021/11/29 05:59:41;;;;;;;44.15;14.07;;;2.20;99.90;;;;;;4996873;28;20085;-85
2021/11/29 06:02:08;;;;;;;48.00;13.85;;;2.20;99.90;;;;;;5000238;28;20115;-86
2021/11/29 06:04:35;;;;;;;51.35;15.18;;;2.30;99.90;;;;;;5007453;28;20046;-86
2021/11/29 06:07:03;;;;;;;49.33;18.00;;;2.30;99.90;;;;;;4987820;28;20093;-87
2021/11/29 06:09:30;;;;;;;52.38;14.65;;;2.40;99.90;;;;;;5026307;28;20041;-79
2021/11/29 06:11:56;;;;;;;73.45;29.35;;;2.50;99.90;;;;;;5001028;28;20489;-79
2021/11/29 06:14:36;;;;;;;63.47;21.48;;;2.50;99.90;;;;;;4988952;28;20471;-79
2021/11/29 06:17:03;;;;;;;54.20;18.13;;;2.50;99.90;;;;;;4990500;28;20078;-79
2021/11/29 06:19:30;;;;;;;69.72;24.23;;;2.60;99.90;;;;;;4997489;28;20278;-78
2021/11/29 06:21:56;;;;;;;58.83;24.52;;;2.60;99.90;;;;;;4985400;28;20054;-78
2021/11/29 06:24:23;;;;;;;64.28;29.50;;;2.70;99.90;;;;;;4994459;28;20770;-77
2021/11/29 06:26:50;;;;;;;59.60;22.33;;;2.70;99.90;;;;;;5011628;28;20591;-81
2021/11/29 06:29:17;;;;;;;74.18;34.88;;;2.80;99.90;;;;;;4989266;28;20164;-80
2021/11/29 06:31:43;;;;;;;56.47;19.45;;;2.80;99.90;;;;;;4996089;28;20141;-82
2021/11/29 06:34:10;;;;;;;65.20;24.50;;;2.80;99.90;;;;;;4984844;28;20112;-81
2021/11/29 06:36:37;;;;;;;63.92;21.92;;;2.90;99.90;;;;;;4987498;28;20046;-80
2021/11/29 06:39:04;;;;;;;58.60;21.40;;;2.90;99.90;;;;;;5004993;28;20069;-81
2021/11/29 06:41:33;;;;;;;57.58;19.33;;;2.80;99.90;;;;;;4993614;28;20100;-80
2021/11/29 06:44:01;;;;;;;57.45;19.92;;;3.00;99.90;;;;;;4991984;28;20131;-80
2021/11/29 06:46:28;;;;;;;52.70;14.63;;;2.90;99.90;;;;;;4993463;28;20104;-78
2021/11/29 06:48:54;;;;;;;55.30;14.75;;;3.00;99.90;;;;;;4992697;28;20136;-78
2021/11/29 06:51:24;;;;;;;50.20;13.95;;;3.00;99.90;;;;;;4982374;28;20070;-78
2021/11/29 06:53:51;;;;;;;61.35;14.88;;;3.00;99.90;;;;;;5005288;28;20050;-78
2021/11/29 06:56:18;;;;;;;46.08;14.27;;;3.00;99.90;;;;;;5002083;28;20084;-78
2021/11/29 06:58:45;;;;;;;57.75;14.75;;;3.00;99.90;;;;;;5004447;28;20056;-78
2021/11/29 07:01:13;;;;;;;54.83;13.77;;;3.20;99.90;;;;;;4983225;28;20793;-77
2021/11/29 07:03:40;;;;;;;48.13;14.63;;;3.00;99.90;;;;;;4991390;28;20045;-79
2021/11/29 07:06:07;;;;;;;55.13;14.85;;;2.90;99.90;;;;;;5015152;28;20445;-78
2021/11/29 07:08:35;;;;;;;45.40;14.48;;;2.90;99.90;;;;;;4996831;28;20134;-78
2021/11/29 07:11:02;;;;;;;47.90;14.43;;;2.90;99.90;;;;;;5000145;28;20046;-78
2021/11/29 07:13:29;;;;;;;49.05;15.60;;;2.90;99.90;;;;;;4993504;28;20054;-78
2021/11/29 07:15:56;;;;;;;53.35;13.98;;;2.80;99.90;;;;;;4990735;28;20081;-78
2021/11/29 07:18:28;;;;;;;57.97;15.45;;;2.90;99.90;;;;;;5005848;28;20096;-78
2021/11/29 07:20:55;;;;;;;53.47;14.60;;;2.80;99.90;;;;;;5011649;28;20077;-78
2021/11/29 07:23:23;;;;;;;55.03;13.35;;;2.80;99.90;;;;;;4990919;28;20909;-78
2021/11/29 07:25:49;;;;;;;59.08;15.30;;;2.80;99.90;;;;;;4991545;28;20053;-78
2021/11/29 07:28:17;;;;;;;46.05;14.55;;;2.80;99.90;;;;;;5010488;28;20104;-78
2021/11/29 07:30:45;;;;;;;56.40;14.20;;;2.80;99.90;;;;;;5011555;28;20096;-78
2021/11/29 07:33:12;;;;;;;65.13;15.45;;;2.80;99.90;;;;;;5013092;28;20064;-78
2021/11/29 07:35:39;;;;;;;108.88;17.38;;;2.80;99.90;;;;;;4990303;28;20082;-77
2021/11/29 07:38:06;;;;;;;68.80;15.13;;;2.70;99.90;;;;;;4995690;28;20069;-77
2021/11/29 07:40:34;;;;;;;117.22;17.15;;;2.70;99.90;;;;;;5013741;28;20085;-78
2021/11/29 07:43:09;;;;;;;144.85;18.20;;;2.70;99.90;;;;;;4991509;28;20077;-78
2021/11/29 07:45:38;;;;;;;115.20;15.55;;;2.70;99.90;;;;;;4991516;28;20885;-77
2021/11/29 07:48:06;;;;;;;242.70;20.50;;;2.60;99.90;;;;;;5010191;28;20153;-77
2021/11/29 07:50:33;;;;;;;221.23;19.58;;;2.60;99.90;;;;;;5012703;28;20738;-77
2021/11/29 07:53:00;;;;;;;158.68;16.95;;;2.60;99.90;;;;;;4991265;28;20053;-77
2021/11/29 07:55:29;;;;;;;95.88;14.65;;;2.60;99.90;;;;;;4989227;28;20050;-77
2021/11/29 07:57:58;;;;;;;98.22;15.98;;;2.70;99.90;;;;;;4990123;28;20074;-77
2021/11/29 08:00:27;;;;;;;67.65;14.07;;;2.70;99.90;;;;;;4996917;28;20502;-78
2021/11/29 08:02:57;;;;;;;97.47;16.23;;;2.70;99.90;;;;;;4988551;28;20057;-77
2021/11/29 08:05:25;;;;;;;103.57;15.00;;;2.80;99.90;;;;;;5004851;28;20156;-76
2021/11/29 08:07:54;;;;;;;111.57;15.57;;;3.00;99.90;;;;;;5009334;28;20127;-76
2021/11/29 08:10:21;;;;;;;108.10;16.13;;;3.20;99.90;;;;;;4989171;28;20084;-78
2021/11/29 08:12:50;;;;;;;78.38;13.68;;;3.20;99.90;;;;;;5012988;28;20554;-77
2021/11/29 08:15:17;;;;;;;51.15;13.88;;;3.30;99.90;;;;;;4989961;28;20054;-78
2021/11/29 08:17:45;;;;;;;45.65;13.35;;;3.30;99.90;;;;;;5013554;28;20077;-78
2021/11/29 08:20:13;;;;;;;47.47;12.95;;;3.40;99.90;;;;;;5010109;28;20140;-78
2021/11/29 08:22:40;;;;;;;50.92;13.40;;;3.50;99.90;;;;;;5010523;28;20046;-78
2021/11/29 08:25:07;;;;;;;69.88;14.18;;;3.70;99.90;;;;;;4988209;28;20062;-78
2021/11/29 08:27:35;;;;;;;49.17;13.27;;;3.70;99.90;;;;;;4991812;28;20054;-78
2021/11/29 08:30:05;;;;;;;51.08;13.07;;;3.90;99.90;;;;;;5010001;28;20046;-78
2021/11/29 08:32:32;;;;;;;42.63;12.15;;;3.80;99.90;;;;;;4988942;28;20078;-78
2021/11/29 08:35:00;;;;;;;50.40;12.85;;;3.80;99.90;;;;;;5007145;28;20053;-83
2021/11/29 08:37:27;;;;;;;46.05;12.57;;;3.90;99.90;;;;;;4994070;28;20125;-82
2021/11/29 08:39:54;;;;;;;51.47;14.02;;;4.10;99.90;;;;;;5013362;28;20085;-82
2021/11/29 08:42:21;;;;;;;47.92;13.82;;;4.20;99.90;;;;;;4992342;28;20058;-83
2021/11/29 08:44:48;;;;;;;48.42;14.18;;;4.20;99.90;;;;;;4989664;28;20080;-82
2021/11/29 08:47:15;;;;;;;48.70;15.15;;;4.30;99.90;;;;;;5008213;28;20730;-82
2021/11/29 08:49:43;;;;;;;49.50;14.25;;;4.40;99.90;;;;;;4989827;28;20159;-83
2021/11/29 08:52:18;;;;;;;48.30;14.00;;;4.50;99.90;;;;;;5010380;28;20057;-83
2021/11/29 08:54:45;;;;;;;49.10;15.45;;;4.80;99.90;;;;;;4994790;28;20078;-80
2021/11/29 08:57:12;;;;;;;50.58;15.48;;;4.90;99.90;;;;;;4997213;28;20128;-83
2021/11/29 08:59:43;;;;;;;50.42;16.27;;;4.90;99.90;;;;;;4995655;28;20080;-83
2021/11/29 09:02:11;;;;;;;44.60;14.20;;;4.80;99.90;;;;;;5008914;28;20088;-82
2021/11/29 09:04:38;;;;;;;47.05;14.63;;;4.60;99.90;;;;;;4993829;28;20059;-84
2021/11/29 09:07:05;;;;;;;59.58;14.95;;;4.60;99.90;;;;;;4991612;28;20082;-84
2021/11/29 09:09:36;;;;;;;48.22;15.32;;;4.40;99.90;;;;;;4990812;28;20572;-83
2021/11/29 09:12:04;;;;;;;50.70;15.70;;;4.40;99.90;;;;;;5012808;28;20053;-83
2021/11/29 09:14:32;;;;;;;55.10;16.15;;;4.40;99.90;;;;;;5010506;28;20103;-84
2021/11/29 09:16:59;;;;;;;52.58;15.75;;;4.40;99.90;;;;;;5018664;28;20180;-88
2021/11/29 09:19:35;;;;;;;51.75;15.80;;;4.40;99.90;;;;;;5012402;28;20092;-90
2021/11/29 09:22:02;;;;;;;47.83;14.07;;;4.40;99.90;;;;;;5017365;28;20324;-83
2021/11/29 09:24:29;;;;;;;50.33;15.05;;;4.40;99.90;;;;;;5002071;28;20057;-83
2021/11/29 09:26:58;;;;;;;52.20;16.75;;;4.50;99.90;;;;;;4989697;28;20078;-83
2021/11/29 09:29:24;;;;;;;49.42;14.90;;;4.60;99.90;;;;;;5013796;28;20104;-81
2021/11/29 09:31:51;;;;;;;57.45;16.98;;;4.60;99.90;;;;;;4998524;28;20186;-82
2021/11/29 09:34:18;;;;;;;64.57;17.80;;;4.70;99.90;;;;;;5012717;28;20133;-82
2021/11/29 09:36:45;;;;;;;53.22;16.95;;;4.80;99.90;;;;;;4997159;28;20042;-84
2021/11/29 09:39:13;;;;;;;62.58;18.35;;;4.80;99.90;;;;;;5000791;28;20060;-81
2021/11/29 09:41:40;;;;;;;66.18;19.25;;;4.80;99.90;;;;;;5003651;28;20565;-83
2021/11/29 09:44:07;;;;;;;62.78;19.75;;;4.80;99.90;;;;;;5002946;28;20456;-85
2021/11/29 09:46:34;;;;;;;68.32;17.70;;;4.60;99.90;;;;;;4996361;28;20136;-84
2021/11/29 09:49:02;;;;;;;74.95;17.63;;;4.70;99.90;;;;;;4999286;28;20049;-86
2021/11/29 09:51:35;;;;;;;60.88;18.75;;;4.40;99.90;;;;;;4997691;28;20111;-86
2021/11/29 09:54:08;;;;;;;62.35;17.48;;;4.40;99.90;;;;;;5010625;28;20072;-86
2021/11/29 09:56:37;;;;;;;61.22;17.75;;;4.30;99.90;;;;;;4992536;28;20128;-84
2021/11/29 09:59:07;;;;;;;55.72;15.93;;;4.20;99.90;;;;;;4991087;28;21826;-84
2021/11/29 10:01:34;;;;;;;56.35;17.10;;;4.30;99.90;;;;;;5011976;28;20136;-85
2021/11/29 10:04:04;;;;;;;63.00;18.40;;;4.40;99.90;;;;;;5013696;28;20115;-84
2021/11/29 10:06:32;;;;;;;67.55;19.13;;;4.30;99.90;;;;;;4991286;28;20096;-84
2021/11/29 10:09:00;;;;;;;56.78;17.15;;;4.40;99.90;;;;;;4998092;28;20041;-85
2021/11/29 10:11:29;;;;;;;71.03;19.25;;;4.30;99.90;;;;;;4994043;28;20060;-85
2021/11/29 10:14:05;;;;;;;62.45;16.88;;;4.40;99.90;;;;;;5015014;28;20536;-84
2021/11/29 10:16:46;;;;;;;68.28;17.73;;;4.40;99.90;;;;;;4993744;28;20053;-84
2021/11/29 10:19:18;;;;;;;54.95;16.05;;;4.50;99.90;;;;;;4993981;28;20070;-85
2021/11/29 10:21:46;;;;;;;64.10;18.77;;;4.60;99.90;;;;;;4993101;28;20505;-85
2021/11/29 10:24:16;;;;;;;54.30;16.83;;;4.90;99.90;;;;;;4995292;28;20082;-83
2021/11/29 10:26:52;;;;;;;55.65;17.15;;;5.30;99.90;;;;;;4999069;28;20163;-84
2021/11/29 10:29:26;;;;;;;60.08;18.75;;;5.60;99.90;;;;;;4990294;28;20100;-84
2021/11/29 10:31:56;;;;;;;57.53;17.42;;;5.90;99.90;;;;;;5000795;28;20053;-84
2021/11/29 10:34:34;;;;;;;53.78;17.33;;;5.90;99.90;;;;;;4994945;28;20132;-84
2021/11/29 10:37:12;;;;;;;52.38;17.55;;;5.90;99.90;;;;;;4994889;28;20064;-84
2021/11/29 10:39:42;;;;;;;51.55;16.80;;;5.80;99.90;;;;;;4989290;28;20073;-84
2021/11/29 10:42:14;;;;;;;53.67;15.85;;;5.70;99.90;;;;;;4992921;28;20081;-83
2021/11/29 10:44:46;;;;;;;51.90;15.23;;;5.50;99.90;;;;;;4994257;28;20096;-84
2021/11/29 10:47:18;;;;;;;44.25;13.55;;;5.50;99.90;;;;;;4998120;28;20085;-84
2021/11/29 10:49:50;;;;;;;47.78;13.63;;;5.50;99.90;;;;;;4995987;28;20157;-84
2021/11/29 10:52:28;;;;;;;41.30;13.18;;;5.30;99.90;;;;;;5006969;28;20095;-84
2021/11/29 10:54:57;;;;;;;45.13;13.07;;;5.30;99.90;;;;;;5003730;28;20132;-85
2021/11/29 10:57:26;;;;;;;42.88;12.82;;;5.30;99.90;;;;;;5002442;28;20046;-84
2021/11/29 10:59:57;;;;;;;30.92;11.82;;;5.40;99.90;;;;;;4992999;28;20054;-85
2021/11/29 11:02:32;;;;;;;32.35;10.27;;;5.40;99.90;;;;;;5014007;28;20115;-84
2021/11/29 11:05:04;;;;;;;16.15;6.75;;;5.30;99.90;;;;;;4997717;28;20060;-85
2021/11/29 11:07:35;;;;;;;15.02;6.35;;;5.30;99.90;;;;;;4993232;28;20050;-85
2021/11/29 11:10:08;;;;;;;18.20;7.40;;;5.40;99.90;;;;;;4991313;28;20045;-86
2021/11/29 11:12:36;;;;;;;14.13;5.90;;;5.60;99.90;;;;;;4999131;28;20061;-86
2021/11/29 11:15:11;;;;;;;16.60;5.93;;;5.70;99.90;;;;;;4997372;28;20084;-90
2021/11/29 11:17:58;;;;;;;12.20;5.57;;;5.70;99.90;;;;;;5005723;28;20056;-91
2021/11/29 11:20:25;;;;;;;11.75;5.45;;;5.60;99.90;;;;;;4994691;28;20567;-87
2021/11/29 11:22:55;;;;;;;12.75;5.40;;;5.50;99.90;;;;;;5015393;28;20185;-87
2021/11/29 11:25:42;;;;;;;15.05;5.35;;;5.60;99.90;;;;;;4998292;28;20042;-87
2021/11/29 11:28:10;;;;;;;10.50;4.63;;;5.40;99.90;;;;;;4993050;28;20057;-90
2021/11/29 11:30:39;;;;;;;8.18;3.85;;;5.40;99.90;;;;;;4997634;28;20073;-90
2021/11/29 11:33:16;;;;;;;11.10;3.53;;;5.50;99.90;;;;;;4994144;28;20089;-89
2021/11/29 11:35:50;;;;;;;9.50;3.33;;;5.70;99.90;;;;;;4996778;28;20057;-89
2021/11/29 11:38:18;;;;;;;16.83;4.07;;;6.10;99.90;;;;;;4996180;28;20046;-92
2021/11/29 11:40:48;;;;;;;6.95;3.45;;;6.30;99.90;;;;;;5013156;28;20054;-90
2021/11/29 11:43:17;;;;;;;14.15;2.58;;;6.10;99.90;;;;;;5005085;28;20069;-90
2021/11/29 11:45:49;;;;;;;7.30;2.83;;;5.90;99.90;;;;;;4992547;28;20046;-89
2021/11/29 11:48:18;;;;;;;10.00;3.33;;;5.80;99.90;;;;;;4995649;28;20652;-88
2021/11/29 11:51:02;;;;;;;11.93;3.30;;;5.90;99.90;;;;;;4992732;28;20598;-89
2021/11/29 11:53:30;;;;;;;6.93;2.95;;;5.70;99.90;;;;;;5013606;28;20042;-88
2021/11/29 11:55:57;;;;;;;11.60;2.85;;;5.70;99.90;;;;;;5013524;28;20077;-89
2021/11/29 11:58:45;;;;;;;11.35;3.55;;;5.80;99.90;;;;;;5013241;28;20449;-85
2021/11/29 12:01:16;;;;;;;10.43;3.53;;;5.90;99.90;;;;;;4992997;28;20561;-88
2021/11/29 12:03:49;;;;;;;14.82;6.05;;;5.90;99.90;;;;;;5012954;28;20133;-86
2021/11/29 12:06:18;;;;;;;9.65;2.95;;;6.00;99.90;;;;;;4992747;28;20132;-86
2021/11/29 12:08:50;;;;;;;9.80;3.08;;;6.00;99.90;;;;;;5007953;28;20100;-86
2021/11/29 12:11:24;;;;;;;7.75;2.78;;;6.10;99.90;;;;;;5010347;28;20081;-89
2021/11/29 12:14:01;;;;;;;6.18;3.38;;;6.10;99.90;;;;;;5014996;28;20057;-91
2021/11/29 12:16:31;;;;;;;4.50;2.42;;;6.20;99.90;;;;;;5000756;28;20041;-91
2021/11/29 12:18:58;;;;;;;6.45;2.20;;;6.20;99.90;;;;;;5000739;28;20045;-88
2021/11/29 12:21:34;;;;;;;7.07;2.92;;;6.30;99.90;;;;;;4991253;28;20050;-85
2021/11/29 12:24:16;;;;;;;4.05;2.42;;;6.30;99.90;;;;;;4991054;28;20071;-87
2021/11/29 12:26:57;;;;;;;4.72;3.13;;;6.40;99.90;;;;;;4999808;28;20856;-90
2021/11/29 12:29:28;;;;;;;8.38;2.63;;;6.50;99.90;;;;;;5010904;28;20189;-88
2021/11/29 12:32:01;;;;;;;6.60;3.10;;;6.40;99.90;;;;;;5012177;28;20523;-87
2021/11/29 12:34:49;;;;;;;6.28;3.03;;;6.40;99.90;;;;;;5000935;28;20053;-91
2021/11/29 12:37:44;;;;;;;7.47;2.47;;;6.40;99.90;;;;;;4999145;28;20050;-91
2021/11/29 12:40:22;;;;;;;4.10;2.53;;;6.40;99.90;;;;;;4999872;28;20046;-95
2021/11/29 12:42:53;;;;;;;4.38;2.35;;;6.30;99.90;;;;;;4999968;28;20081;-88
2021/11/29 12:45:25;;;;;;;7.68;2.55;;;6.20;99.90;;;;;;4999300;28;20041;-88
2021/11/29 12:47:59;;;;;;;4.47;1.80;;;6.00;99.90;;;;;;5002091;28;20096;-90